Terminal Aerodrome Forecast
Issued by NWS

Home | Current Version | Previous Version | Text Only | Print | Product List | Glossary Off
Versions: 1 2 3 4 5 6 7 8 9 10 11 12 13 14

042
FTUS43 KABR 271120 AAA
TAFATY
TAF AMD
KATY 271120Z 2711/2806 34014KT P6SM BKN012 OVC019
     FM271500 34013G20KT P6SM OVC020
     FM272300 34010KT P6SM BKN020
     FM280000 34009KT P6SM SCT020
     FM280400 32004KT P6SM FEW060=

USA.gov is the U.S. government's official web portal to all federal, state and local government web resources and services.